sensor_id;sensor_type;location;lat;lon;timestamp;P1;durP1;ratioP1;P2;durP2;ratioP2
29634;SDS011;16557;54.762;56.068;2023-04-24T00:01:18;6.33;;;4.37;;
29634;SDS011;16557;54.762;56.068;2023-04-24T00:03:47;13.72;;;5.83;;
29634;SDS011;16557;54.762;56.068;2023-04-24T00:06:17;7.08;;;3.52;;
29634;SDS011;16557;54.762;56.068;2023-04-24T00:08:47;10.00;;;4.45;;
29634;SDS011;16557;54.762;56.068;2023-04-24T00:11:16;18.77;;;6.00;;
29634;SDS011;16557;54.762;56.068;2023-04-24T00:13:45;9.65;;;4.12;;
29634;SDS011;16557;54.762;56.068;2023-04-24T00:16:15;10.45;;;5.03;;
29634;SDS011;16557;54.762;56.068;2023-04-24T00:18:44;16.73;;;5.90;;
29634;SDS011;16557;54.762;56.068;2023-04-24T00:21:15;11.88;;;5.53;;
29634;SDS011;16557;54.762;56.068;2023-04-24T00:23:45;16.80;;;7.78;;
29634;SDS011;16557;54.762;56.068;2023-04-24T00:26:15;9.88;;;4.10;;
29634;SDS011;16557;54.762;56.068;2023-04-24T00:28:45;7.72;;;3.95;;
29634;SDS011;16557;54.762;56.068;2023-04-24T00:31:14;7.80;;;3.67;;
29634;SDS011;16557;54.762;56.068;2023-04-24T00:33:43;9.48;;;4.40;;
29634;SDS011;16557;54.762;56.068;2023-04-24T00:36:12;7.55;;;3.83;;
29634;SDS011;16557;54.762;56.068;2023-04-24T00:38:42;8.68;;;4.22;;
29634;SDS011;16557;54.762;56.068;2023-04-24T00:41:12;7.10;;;3.60;;
29634;SDS011;16557;54.762;56.068;2023-04-24T00:43:41;6.50;;;3.67;;
29634;SDS011;16557;54.762;56.068;2023-04-24T00:46:11;8.65;;;3.30;;
29634;SDS011;16557;54.762;56.068;2023-04-24T00:48:42;7.03;;;3.83;;
29634;SDS011;16557;54.762;56.068;2023-04-24T00:51:12;8.43;;;3.50;;
29634;SDS011;16557;54.762;56.068;2023-04-24T00:53:41;7.95;;;3.85;;
29634;SDS011;16557;54.762;56.068;2023-04-24T00:56:10;8.85;;;4.33;;
29634;SDS011;16557;54.762;56.068;2023-04-24T00:58:39;8.73;;;3.58;;
29634;SDS011;16557;54.762;56.068;2023-04-24T01:01:09;8.65;;;3.90;;
29634;SDS011;16557;54.762;56.068;2023-04-24T01:03:39;7.00;;;4.12;;
29634;SDS011;16557;54.762;56.068;2023-04-24T01:06:09;7.08;;;3.30;;
29634;SDS011;16557;54.762;56.068;2023-04-24T01:08:39;11.63;;;3.90;;
29634;SDS011;16557;54.762;56.068;2023-04-24T01:11:09;5.72;;;3.15;;
29634;SDS011;16557;54.762;56.068;2023-04-24T01:13:39;6.20;;;3.55;;
29634;SDS011;16557;54.762;56.068;2023-04-24T01:16:08;6.80;;;3.55;;
29634;SDS011;16557;54.762;56.068;2023-04-24T01:18:38;6.53;;;3.70;;
29634;SDS011;16557;54.762;56.068;2023-04-24T01:21:08;5.97;;;3.25;;
29634;SDS011;16557;54.762;56.068;2023-04-24T01:23:37;15.85;;;4.03;;
29634;SDS011;16557;54.762;56.068;2023-04-24T01:26:07;5.62;;;3.72;;
29634;SDS011;16557;54.762;56.068;2023-04-24T01:28:36;9.18;;;2.95;;
29634;SDS011;16557;54.762;56.068;2023-04-24T01:31:06;9.48;;;3.35;;
29634;SDS011;16557;54.762;56.068;2023-04-24T01:33:35;11.28;;;4.08;;
29634;SDS011;16557;54.762;56.068;2023-04-24T01:36:05;10.20;;;3.90;;
29634;SDS011;16557;54.762;56.068;2023-04-24T01:38:34;13.30;;;3.95;;
29634;SDS011;16557;54.762;56.068;2023-04-24T01:41:04;11.53;;;3.25;;
29634;SDS011;16557;54.762;56.068;2023-04-24T01:43:33;6.58;;;3.27;;
29634;SDS011;16557;54.762;56.068;2023-04-24T01:46:03;11.97;;;4.05;;
29634;SDS011;16557;54.762;56.068;2023-04-24T01:48:34;9.60;;;4.28;;
29634;SDS011;16557;54.762;56.068;2023-04-24T01:51:03;7.60;;;3.45;;
29634;SDS011;16557;54.762;56.068;2023-04-24T01:53:33;6.03;;;3.40;;
29634;SDS011;16557;54.762;56.068;2023-04-24T01:56:02;10.15;;;3.92;;
29634;SDS011;16557;54.762;56.068;2023-04-24T01:58:42;11.38;;;3.75;;
29634;SDS011;16557;54.762;56.068;2023-04-24T02:01:24;8.63;;;4.03;;
29634;SDS011;16557;54.762;56.068;2023-04-24T02:03:49;5.05;;;3.33;;
29634;SDS011;16557;54.762;56.068;2023-04-24T02:06:19;9.90;;;3.80;;
29634;SDS011;16557;54.762;56.068;2023-04-24T02:08:48;8.73;;;3.90;;
29634;SDS011;16557;54.762;56.068;2023-04-24T02:11:17;8.68;;;3.95;;
29634;SDS011;16557;54.762;56.068;2023-04-24T02:13:47;9.68;;;3.60;;
29634;SDS011;16557;54.762;56.068;2023-04-24T02:16:17;7.72;;;4.08;;
29634;SDS011;16557;54.762;56.068;2023-04-24T02:18:48;9.73;;;5.42;;
29634;SDS011;16557;54.762;56.068;2023-04-24T02:21:18;9.08;;;3.85;;
29634;SDS011;16557;54.762;56.068;2023-04-24T02:23:47;11.15;;;4.33;;
29634;SDS011;16557;54.762;56.068;2023-04-24T02:26:16;8.40;;;4.03;;
29634;SDS011;16557;54.762;56.068;2023-04-24T02:28:46;4.92;;;3.58;;
29634;SDS011;16557;54.762;56.068;2023-04-24T02:31:15;7.78;;;3.58;;
29634;SDS011;16557;54.762;56.068;2023-04-24T02:33:45;9.28;;;3.35;;
29634;SDS011;16557;54.762;56.068;2023-04-24T02:36:14;7.95;;;2.95;;
29634;SDS011;16557;54.762;56.068;2023-04-24T02:38:44;6.40;;;3.42;;
29634;SDS011;16557;54.762;56.068;2023-04-24T02:41:13;8.10;;;3.15;;
29634;SDS011;16557;54.762;56.068;2023-04-24T02:43:42;16.82;;;4.67;;
29634;SDS011;16557;54.762;56.068;2023-04-24T02:46:11;9.53;;;3.98;;
29634;SDS011;16557;54.762;56.068;2023-04-24T02:48:41;20.23;;;5.47;;
29634;SDS011;16557;54.762;56.068;2023-04-24T02:51:10;12.43;;;3.62;;
29634;SDS011;16557;54.762;56.068;2023-04-24T02:53:39;6.45;;;3.05;;
29634;SDS011;16557;54.762;56.068;2023-04-24T02:56:09;9.18;;;3.15;;
29634;SDS011;16557;54.762;56.068;2023-04-24T02:58:39;6.83;;;3.00;;
29634;SDS011;16557;54.762;56.068;2023-04-24T03:01:09;4.10;;;2.65;;
29634;SDS011;16557;54.762;56.068;2023-04-24T03:03:39;13.45;;;3.05;;
29634;SDS011;16557;54.762;56.068;2023-04-24T03:06:08;9.58;;;3.20;;
29634;SDS011;16557;54.762;56.068;2023-04-24T03:08:38;9.35;;;3.40;;
29634;SDS011;16557;54.762;56.068;2023-04-24T03:11:07;7.60;;;3.12;;
29634;SDS011;16557;54.762;56.068;2023-04-24T03:13:36;7.42;;;3.67;;
29634;SDS011;16557;54.762;56.068;2023-04-24T03:16:06;8.55;;;3.22;;
29634;SDS011;16557;54.762;56.068;2023-04-24T03:18:35;5.53;;;3.02;;
29634;SDS011;16557;54.762;56.068;2023-04-24T03:21:04;4.55;;;2.80;;
29634;SDS011;16557;54.762;56.068;2023-04-24T03:23:33;16.32;;;3.52;;
29634;SDS011;16557;54.762;56.068;2023-04-24T03:26:03;8.88;;;2.90;;
29634;SDS011;16557;54.762;56.068;2023-04-24T03:28:32;13.43;;;3.00;;
29634;SDS011;16557;54.762;56.068;2023-04-24T03:31:02;5.60;;;2.77;;
29634;SDS011;16557;54.762;56.068;2023-04-24T03:33:32;13.55;;;3.08;;
29634;SDS011;16557;54.762;56.068;2023-04-24T03:36:02;12.75;;;3.08;;
29634;SDS011;16557;54.762;56.068;2023-04-24T03:38:32;10.98;;;2.70;;
29634;SDS011;16557;54.762;56.068;2023-04-24T03:41:01;8.00;;;3.00;;
29634;SDS011;16557;54.762;56.068;2023-04-24T03:43:31;8.08;;;2.75;;
29634;SDS011;16557;54.762;56.068;2023-04-24T03:46:01;10.08;;;2.60;;
29634;SDS011;16557;54.762;56.068;2023-04-24T03:48:31;11.33;;;2.58;;
29634;SDS011;16557;54.762;56.068;2023-04-24T03:51:00;8.65;;;2.80;;
29634;SDS011;16557;54.762;56.068;2023-04-24T03:53:30;6.72;;;2.67;;
29634;SDS011;16557;54.762;56.068;2023-04-24T03:55:59;5.80;;;2.83;;
29634;SDS011;16557;54.762;56.068;2023-04-24T03:58:29;8.20;;;2.90;;
29634;SDS011;16557;54.762;56.068;2023-04-24T04:00:58;15.93;;;3.08;;
29634;SDS011;16557;54.762;56.068;2023-04-24T04:03:28;10.30;;;2.70;;
29634;SDS011;16557;54.762;56.068;2023-04-24T04:05:57;7.87;;;2.52;;
29634;SDS011;16557;54.762;56.068;2023-04-24T04:08:27;13.48;;;2.85;;
29634;SDS011;16557;54.762;56.068;2023-04-24T04:10:56;11.03;;;3.20;;
29634;SDS011;16557;54.762;56.068;2023-04-24T04:13:25;8.25;;;2.25;;
29634;SDS011;16557;54.762;56.068;2023-04-24T04:15:55;8.43;;;2.75;;
29634;SDS011;16557;54.762;56.068;2023-04-24T04:18:24;12.05;;;2.67;;
29634;SDS011;16557;54.762;56.068;2023-04-24T04:20:53;8.55;;;2.35;;
29634;SDS011;16557;54.762;56.068;2023-04-24T04:23:24;7.20;;;2.30;;
29634;SDS011;16557;54.762;56.068;2023-04-24T04:25:53;11.48;;;3.08;;
29634;SDS011;16557;54.762;56.068;2023-04-24T04:28:22;12.03;;;2.75;;
29634;SDS011;16557;54.762;56.068;2023-04-24T04:30:52;10.43;;;2.47;;
29634;SDS011;16557;54.762;56.068;2023-04-24T04:33:22;7.33;;;2.62;;
29634;SDS011;16557;54.762;56.068;2023-04-24T04:35:51;7.45;;;3.00;;
29634;SDS011;16557;54.762;56.068;2023-04-24T04:38:22;9.13;;;2.22;;
29634;SDS011;16557;54.762;56.068;2023-04-24T04:40:53;7.58;;;2.50;;
29634;SDS011;16557;54.762;56.068;2023-04-24T04:43:24;4.92;;;2.00;;
29634;SDS011;16557;54.762;56.068;2023-04-24T04:45:53;6.83;;;1.47;;
29634;SDS011;16557;54.762;56.068;2023-04-24T04:48:26;5.85;;;1.85;;
29634;SDS011;16557;54.762;56.068;2023-04-24T04:50:56;8.15;;;1.85;;
29634;SDS011;16557;54.762;56.068;2023-04-24T04:53:25;9.68;;;2.40;;
29634;SDS011;16557;54.762;56.068;2023-04-24T04:55:55;4.97;;;2.87;;
29634;SDS011;16557;54.762;56.068;2023-04-24T04:58:24;7.85;;;1.80;;
29634;SDS011;16557;54.762;56.068;2023-04-24T05:00:53;9.88;;;2.00;;
29634;SDS011;16557;54.762;56.068;2023-04-24T05:03:25;6.90;;;2.45;;
29634;SDS011;16557;54.762;56.068;2023-04-24T05:05:54;6.10;;;2.00;;
29634;SDS011;16557;54.762;56.068;2023-04-24T05:08:23;8.00;;;1.98;;
29634;SDS011;16557;54.762;56.068;2023-04-24T05:10:53;5.42;;;2.45;;
29634;SDS011;16557;54.762;56.068;2023-04-24T05:13:23;4.62;;;1.98;;
29634;SDS011;16557;54.762;56.068;2023-04-24T05:15:52;3.20;;;1.45;;
29634;SDS011;16557;54.762;56.068;2023-04-24T05:18:21;5.20;;;2.10;;
29634;SDS011;16557;54.762;56.068;2023-04-24T05:20:50;6.95;;;1.50;;
29634;SDS011;16557;54.762;56.068;2023-04-24T05:23:20;9.93;;;2.08;;
29634;SDS011;16557;54.762;56.068;2023-04-24T05:25:49;4.85;;;1.72;;
29634;SDS011;16557;54.762;56.068;2023-04-24T05:28:18;5.67;;;1.80;;
29634;SDS011;16557;54.762;56.068;2023-04-24T05:30:48;9.78;;;2.17;;
29634;SDS011;16557;54.762;56.068;2023-04-24T05:33:17;6.90;;;1.95;;
29634;SDS011;16557;54.762;56.068;2023-04-24T05:35:46;8.23;;;1.82;;
29634;SDS011;16557;54.762;56.068;2023-04-24T05:38:16;11.03;;;2.37;;
29634;SDS011;16557;54.762;56.068;2023-04-24T05:40:48;4.70;;;1.87;;
29634;SDS011;16557;54.762;56.068;2023-04-24T05:43:19;8.30;;;3.60;;
29634;SDS011;16557;54.762;56.068;2023-04-24T05:45:49;10.78;;;2.10;;
29634;SDS011;16557;54.762;56.068;2023-04-24T05:48:18;3.83;;;1.57;;
29634;SDS011;16557;54.762;56.068;2023-04-24T05:50:49;6.37;;;1.70;;
29634;SDS011;16557;54.762;56.068;2023-04-24T05:53:20;5.55;;;1.75;;
29634;SDS011;16557;54.762;56.068;2023-04-24T05:55:49;6.40;;;2.42;;
29634;SDS011;16557;54.762;56.068;2023-04-24T05:58:18;8.63;;;2.70;;
29634;SDS011;16557;54.762;56.068;2023-04-24T06:00:54;2.92;;;1.95;;
29634;SDS011;16557;54.762;56.068;2023-04-24T06:03:18;9.13;;;1.80;;
29634;SDS011;16557;54.762;56.068;2023-04-24T06:05:49;2.50;;;1.80;;
29634;SDS011;16557;54.762;56.068;2023-04-24T06:08:19;9.23;;;2.10;;
29634;SDS011;16557;54.762;56.068;2023-04-24T06:10:50;5.55;;;1.67;;
29634;SDS011;16557;54.762;56.068;2023-04-24T06:13:19;4.97;;;1.80;;
29634;SDS011;16557;54.762;56.068;2023-04-24T06:15:48;9.05;;;1.75;;
29634;SDS011;16557;54.762;56.068;2023-04-24T06:18:18;12.13;;;2.37;;
29634;SDS011;16557;54.762;56.068;2023-04-24T06:20:47;3.72;;;2.12;;
29634;SDS011;16557;54.762;56.068;2023-04-24T06:23:17;6.30;;;2.62;;
29634;SDS011;16557;54.762;56.068;2023-04-24T06:25:46;5.75;;;1.95;;
29634;SDS011;16557;54.762;56.068;2023-04-24T06:28:15;8.75;;;2.02;;
29634;SDS011;16557;54.762;56.068;2023-04-24T06:30:45;11.08;;;2.12;;
29634;SDS011;16557;54.762;56.068;2023-04-24T06:35:47;8.85;;;3.30;;
29634;SDS011;16557;54.762;56.068;2023-04-24T06:38:16;9.98;;;2.67;;
29634;SDS011;16557;54.762;56.068;2023-04-24T06:40:45;9.50;;;2.60;;
29634;SDS011;16557;54.762;56.068;2023-04-24T06:43:14;11.03;;;2.33;;
29634;SDS011;16557;54.762;56.068;2023-04-24T06:45:44;10.88;;;2.90;;
29634;SDS011;16557;54.762;56.068;2023-04-24T06:48:14;11.73;;;3.60;;
29634;SDS011;16557;54.762;56.068;2023-04-24T06:50:44;7.72;;;2.58;;
29634;SDS011;16557;54.762;56.068;2023-04-24T06:53:17;6.42;;;2.72;;
29634;SDS011;16557;54.762;56.068;2023-04-24T06:55:47;16.87;;;5.55;;
29634;SDS011;16557;54.762;56.068;2023-04-24T06:58:18;7.95;;;2.80;;
29634;SDS011;16557;54.762;56.068;2023-04-24T07:00:48;10.70;;;2.47;;
29634;SDS011;16557;54.762;56.068;2023-04-24T07:03:17;9.50;;;2.00;;
29634;SDS011;16557;54.762;56.068;2023-04-24T07:05:47;7.08;;;2.20;;
29634;SDS011;16557;54.762;56.068;2023-04-24T07:08:17;9.88;;;2.20;;
29634;SDS011;16557;54.762;56.068;2023-04-24T07:10:48;5.55;;;2.12;;
29634;SDS011;16557;54.762;56.068;2023-04-24T07:13:19;7.35;;;2.25;;
29634;SDS011;16557;54.762;56.068;2023-04-24T07:15:49;10.58;;;2.87;;
29634;SDS011;16557;54.762;56.068;2023-04-24T07:18:21;5.90;;;1.77;;
29634;SDS011;16557;54.762;56.068;2023-04-24T07:20:50;8.90;;;1.90;;
29634;SDS011;16557;54.762;56.068;2023-04-24T07:23:19;6.20;;;2.10;;
29634;SDS011;16557;54.762;56.068;2023-04-24T07:25:49;8.38;;;1.92;;
29634;SDS011;16557;54.762;56.068;2023-04-24T07:28:18;10.95;;;2.72;;
29634;SDS011;16557;54.762;56.068;2023-04-24T07:30:48;12.25;;;1.50;;
29634;SDS011;16557;54.762;56.068;2023-04-24T07:33:17;8.33;;;1.90;;
29634;SDS011;16557;54.762;56.068;2023-04-24T07:35:46;4.90;;;1.57;;
29634;SDS011;16557;54.762;56.068;2023-04-24T07:38:17;5.40;;;1.70;;
29634;SDS011;16557;54.762;56.068;2023-04-24T07:40:49;7.70;;;1.60;;
29634;SDS011;16557;54.762;56.068;2023-04-24T07:43:19;3.98;;;1.90;;
29634;SDS011;16557;54.762;56.068;2023-04-24T07:45:49;7.42;;;1.55;;
29634;SDS011;16557;54.762;56.068;2023-04-24T07:48:19;3.70;;;1.85;;
29634;SDS011;16557;54.762;56.068;2023-04-24T07:50:49;6.30;;;2.55;;
29634;SDS011;16557;54.762;56.068;2023-04-24T07:53:19;11.15;;;2.27;;
29634;SDS011;16557;54.762;56.068;2023-04-24T07:55:48;3.70;;;1.62;;
29634;SDS011;16557;54.762;56.068;2023-04-24T07:58:17;6.10;;;1.50;;
29634;SDS011;16557;54.762;56.068;2023-04-24T08:00:47;6.60;;;1.70;;
29634;SDS011;16557;54.762;56.068;2023-04-24T08:03:16;10.10;;;2.05;;
29634;SDS011;16557;54.762;56.068;2023-04-24T08:05:47;4.53;;;1.50;;
29634;SDS011;16557;54.762;56.068;2023-04-24T08:08:20;4.72;;;1.35;;
29634;SDS011;16557;54.762;56.068;2023-04-24T08:10:49;10.18;;;3.75;;
29634;SDS011;16557;54.762;56.068;2023-04-24T08:13:19;5.45;;;1.62;;
29634;SDS011;16557;54.762;56.068;2023-04-24T08:15:48;6.53;;;1.90;;
29634;SDS011;16557;54.762;56.068;2023-04-24T08:18:18;3.20;;;1.42;;
29634;SDS011;16557;54.762;56.068;2023-04-24T08:20:47;5.58;;;1.45;;
29634;SDS011;16557;54.762;56.068;2023-04-24T08:23:16;7.08;;;1.60;;
29634;SDS011;16557;54.762;56.068;2023-04-24T08:25:46;9.00;;;1.55;;
29634;SDS011;16557;54.762;56.068;2023-04-24T08:28:16;6.78;;;1.40;;
29634;SDS011;16557;54.762;56.068;2023-04-24T08:30:47;1.85;;;1.10;;
29634;SDS011;16557;54.762;56.068;2023-04-24T08:33:18;5.22;;;1.27;;
29634;SDS011;16557;54.762;56.068;2023-04-24T08:35:47;3.95;;;1.40;;
29634;SDS011;16557;54.762;56.068;2023-04-24T08:38:17;6.08;;;1.67;;
29634;SDS011;16557;54.762;56.068;2023-04-24T08:40:46;2.95;;;1.30;;
29634;SDS011;16557;54.762;56.068;2023-04-24T08:43:16;6.00;;;1.90;;
29634;SDS011;16557;54.762;56.068;2023-04-24T08:45:46;7.25;;;1.27;;
29634;SDS011;16557;54.762;56.068;2023-04-24T08:48:15;5.37;;;1.85;;
29634;SDS011;16557;54.762;56.068;2023-04-24T08:50:45;5.40;;;1.15;;
29634;SDS011;16557;54.762;56.068;2023-04-24T08:53:16;4.60;;;1.32;;
29634;SDS011;16557;54.762;56.068;2023-04-24T08:55:48;3.98;;;1.22;;
29634;SDS011;16557;54.762;56.068;2023-04-24T08:58:17;6.85;;;1.40;;
29634;SDS011;16557;54.762;56.068;2023-04-24T09:00:46;38.98;;;2.58;;
29634;SDS011;16557;54.762;56.068;2023-04-24T09:03:16;3.47;;;1.20;;
29634;SDS011;16557;54.762;56.068;2023-04-24T09:05:46;15.80;;;1.85;;
29634;SDS011;16557;54.762;56.068;2023-04-24T09:08:18;6.72;;;1.95;;
29634;SDS011;16557;54.762;56.068;2023-04-24T09:10:50;3.95;;;1.00;;
29634;SDS011;16557;54.762;56.068;2023-04-24T09:13:18;3.20;;;0.93;;
29634;SDS011;16557;54.762;56.068;2023-04-24T09:15:48;3.62;;;0.98;;
29634;SDS011;16557;54.762;56.068;2023-04-24T09:18:18;6.22;;;1.40;;
29634;SDS011;16557;54.762;56.068;2023-04-24T09:20:57;10.00;;;1.37;;
29634;SDS011;16557;54.762;56.068;2023-04-24T09:23:31;6.17;;;1.52;;
29634;SDS011;16557;54.762;56.068;2023-04-24T09:26:01;4.47;;;0.95;;
29634;SDS011;16557;54.762;56.068;2023-04-24T09:28:35;9.75;;;1.40;;
29634;SDS011;16557;54.762;56.068;2023-04-24T09:31:09;6.45;;;1.10;;
29634;SDS011;16557;54.762;56.068;2023-04-24T09:33:53;4.20;;;1.12;;
29634;SDS011;16557;54.762;56.068;2023-04-24T09:36:29;5.17;;;0.85;;
29634;SDS011;16557;54.762;56.068;2023-04-24T09:39:04;8.35;;;1.25;;
29634;SDS011;16557;54.762;56.068;2023-04-24T09:41:36;9.18;;;1.32;;
29634;SDS011;16557;54.762;56.068;2023-04-24T09:46:45;5.03;;;1.30;;
29634;SDS011;16557;54.762;56.068;2023-04-24T09:49:26;4.08;;;0.82;;
29634;SDS011;16557;54.762;56.068;2023-04-24T09:52:09;6.03;;;0.95;;
29634;SDS011;16557;54.762;56.068;2023-04-24T09:57:07;7.25;;;1.20;;
29634;SDS011;16557;54.762;56.068;2023-04-24T09:59:41;7.30;;;1.30;;
29634;SDS011;16557;54.762;56.068;2023-04-24T10:02:19;7.80;;;2.35;;
29634;SDS011;16557;54.762;56.068;2023-04-24T10:04:54;6.85;;;1.40;;
29634;SDS011;16557;54.762;56.068;2023-04-24T10:07:32;2.45;;;1.12;;
29634;SDS011;16557;54.762;56.068;2023-04-24T10:10:01;3.70;;;0.98;;
29634;SDS011;16557;54.762;56.068;2023-04-24T10:12:31;2.12;;;1.07;;
29634;SDS011;16557;54.762;56.068;2023-04-24T10:15:00;6.37;;;1.35;;
29634;SDS011;16557;54.762;56.068;2023-04-24T10:17:37;4.28;;;1.05;;
29634;SDS011;16557;54.762;56.068;2023-04-24T10:20:02;4.92;;;1.07;;
29634;SDS011;16557;54.762;56.068;2023-04-24T10:22:33;7.72;;;1.35;;
29634;SDS011;16557;54.762;56.068;2023-04-24T10:25:03;3.52;;;1.27;;
29634;SDS011;16557;54.762;56.068;2023-04-24T10:27:33;6.65;;;1.17;;
29634;SDS011;16557;54.762;56.068;2023-04-24T10:30:03;10.28;;;1.37;;
29634;SDS011;16557;54.762;56.068;2023-04-24T10:32:34;3.70;;;1.22;;
29634;SDS011;16557;54.762;56.068;2023-04-24T10:35:04;3.33;;;1.32;;
29634;SDS011;16557;54.762;56.068;2023-04-24T10:37:50;3.20;;;1.80;;
29634;SDS011;16557;54.762;56.068;2023-04-24T10:40:18;4.35;;;1.50;;
29634;SDS011;16557;54.762;56.068;2023-04-24T10:42:51;6.00;;;1.95;;
29634;SDS011;16557;54.762;56.068;2023-04-24T10:45:21;11.70;;;1.98;;
29634;SDS011;16557;54.762;56.068;2023-04-24T10:47:52;6.33;;;1.35;;
29634;SDS011;16557;54.762;56.068;2023-04-24T10:50:22;7.12;;;1.42;;
29634;SDS011;16557;54.762;56.068;2023-04-24T10:52:52;3.50;;;1.30;;
29634;SDS011;16557;54.762;56.068;2023-04-24T10:55:42;7.55;;;1.30;;
29634;SDS011;16557;54.762;56.068;2023-04-24T10:58:12;6.42;;;1.47;;
29634;SDS011;16557;54.762;56.068;2023-04-24T11:00:44;3.15;;;1.50;;
29634;SDS011;16557;54.762;56.068;2023-04-24T11:03:32;5.45;;;1.62;;
29634;SDS011;16557;54.762;56.068;2023-04-24T11:06:02;3.95;;;1.37;;
29634;SDS011;16557;54.762;56.068;2023-04-24T11:11:14;5.72;;;1.42;;
29634;SDS011;16557;54.762;56.068;2023-04-24T11:14:06;3.93;;;1.20;;
29634;SDS011;16557;54.762;56.068;2023-04-24T11:16:42;3.85;;;1.65;;
29634;SDS011;16557;54.762;56.068;2023-04-24T11:21:53;4.42;;;1.77;;
29634;SDS011;16557;54.762;56.068;2023-04-24T11:24:38;7.72;;;1.55;;
29634;SDS011;16557;54.762;56.068;2023-04-24T11:27:11;7.50;;;3.42;;
29634;SDS011;16557;54.762;56.068;2023-04-24T11:29:48;6.00;;;1.55;;
29634;SDS011;16557;54.762;56.068;2023-04-24T11:34:58;9.40;;;1.45;;
29634;SDS011;16557;54.762;56.068;2023-04-24T11:37:39;6.60;;;1.87;;
29634;SDS011;16557;54.762;56.068;2023-04-24T11:40:10;4.80;;;1.70;;
29634;SDS011;16557;54.762;56.068;2023-04-24T11:42:47;8.58;;;3.02;;
29634;SDS011;16557;54.762;56.068;2023-04-24T11:45:15;17.42;;;1.60;;
29634;SDS011;16557;54.762;56.068;2023-04-24T11:47:48;6.47;;;1.55;;
29634;SDS011;16557;54.762;56.068;2023-04-24T11:50:18;2.50;;;1.20;;
29634;SDS011;16557;54.762;56.068;2023-04-24T11:52:49;3.98;;;1.98;;
29634;SDS011;16557;54.762;56.068;2023-04-24T11:57:54;2.05;;;1.22;;
29634;SDS011;16557;54.762;56.068;2023-04-24T12:00:26;4.67;;;1.32;;
29634;SDS011;16557;54.762;56.068;2023-04-24T12:03:07;7.10;;;1.70;;
29634;SDS011;16557;54.762;56.068;2023-04-24T12:05:38;10.05;;;1.60;;
29634;SDS011;16557;54.762;56.068;2023-04-24T12:08:08;3.40;;;1.80;;
29634;SDS011;16557;54.762;56.068;2023-04-24T12:10:38;6.42;;;1.60;;
29634;SDS011;16557;54.762;56.068;2023-04-24T12:13:07;5.65;;;1.42;;
29634;SDS011;16557;54.762;56.068;2023-04-24T12:15:39;5.72;;;1.37;;
29634;SDS011;16557;54.762;56.068;2023-04-24T12:18:11;4.40;;;1.05;;
29634;SDS011;16557;54.762;56.068;2023-04-24T12:20:44;4.53;;;1.50;;
29634;SDS011;16557;54.762;56.068;2023-04-24T12:23:13;9.90;;;1.45;;
29634;SDS011;16557;54.762;56.068;2023-04-24T12:25:43;6.92;;;1.55;;
29634;SDS011;16557;54.762;56.068;2023-04-24T12:28:12;5.45;;;2.90;;
29634;SDS011;16557;54.762;56.068;2023-04-24T12:30:47;3.37;;;1.90;;
29634;SDS011;16557;54.762;56.068;2023-04-24T12:33:19;2.33;;;1.30;;
29634;SDS011;16557;54.762;56.068;2023-04-24T12:35:51;6.55;;;1.92;;
29634;SDS011;16557;54.762;56.068;2023-04-24T12:38:23;8.60;;;1.80;;
29634;SDS011;16557;54.762;56.068;2023-04-24T12:41:03;4.85;;;1.70;;
29634;SDS011;16557;54.762;56.068;2023-04-24T12:46:06;6.12;;;2.80;;
29634;SDS011;16557;54.762;56.068;2023-04-24T12:48:35;3.80;;;1.47;;
29634;SDS011;16557;54.762;56.068;2023-04-24T12:51:04;9.33;;;1.90;;
29634;SDS011;16557;54.762;56.068;2023-04-24T12:53:34;8.45;;;1.70;;
29634;SDS011;16557;54.762;56.068;2023-04-24T12:56:03;6.15;;;1.67;;
29634;SDS011;16557;54.762;56.068;2023-04-24T12:58:33;8.85;;;2.55;;
29634;SDS011;16557;54.762;56.068;2023-04-24T13:01:02;4.03;;;1.87;;
29634;SDS011;16557;54.762;56.068;2023-04-24T13:03:33;8.33;;;1.42;;
29634;SDS011;16557;54.762;56.068;2023-04-24T13:06:03;6.75;;;2.62;;
29634;SDS011;16557;54.762;56.068;2023-04-24T13:08:32;5.72;;;2.22;;
29634;SDS011;16557;54.762;56.068;2023-04-24T13:11:02;4.20;;;1.70;;
29634;SDS011;16557;54.762;56.068;2023-04-24T13:13:31;5.65;;;1.67;;
29634;SDS011;16557;54.762;56.068;2023-04-24T13:16:00;3.27;;;1.47;;
29634;SDS011;16557;54.762;56.068;2023-04-24T13:18:30;7.20;;;2.40;;
29634;SDS011;16557;54.762;56.068;2023-04-24T13:20:59;6.50;;;2.08;;
29634;SDS011;16557;54.762;56.068;2023-04-24T13:23:28;9.55;;;1.80;;
29634;SDS011;16557;54.762;56.068;2023-04-24T13:25:57;5.87;;;2.10;;
29634;SDS011;16557;54.762;56.068;2023-04-24T13:28:27;2.05;;;1.40;;
29634;SDS011;16557;54.762;56.068;2023-04-24T13:30:57;8.15;;;1.50;;
29634;SDS011;16557;54.762;56.068;2023-04-24T13:33:27;4.20;;;2.05;;
29634;SDS011;16557;54.762;56.068;2023-04-24T13:35:56;6.70;;;2.02;;
29634;SDS011;16557;54.762;56.068;2023-04-24T13:38:26;7.45;;;2.65;;
29634;SDS011;16557;54.762;56.068;2023-04-24T13:40:55;4.60;;;2.22;;
29634;SDS011;16557;54.762;56.068;2023-04-24T13:43:24;6.30;;;2.22;;
29634;SDS011;16557;54.762;56.068;2023-04-24T13:45:54;4.17;;;1.95;;
29634;SDS011;16557;54.762;56.068;2023-04-24T13:48:23;8.43;;;2.58;;
29634;SDS011;16557;54.762;56.068;2023-04-24T13:50:52;6.25;;;2.08;;
29634;SDS011;16557;54.762;56.068;2023-04-24T13:53:22;9.48;;;4.35;;
29634;SDS011;16557;54.762;56.068;2023-04-24T13:55:51;5.25;;;1.55;;
29634;SDS011;16557;54.762;56.068;2023-04-24T13:58:20;4.90;;;2.37;;
29634;SDS011;16557;54.762;56.068;2023-04-24T14:00:50;12.37;;;3.08;;
29634;SDS011;16557;54.762;56.068;2023-04-24T14:03:19;4.47;;;1.67;;
29634;SDS011;16557;54.762;56.068;2023-04-24T14:05:48;5.15;;;1.67;;
29634;SDS011;16557;54.762;56.068;2023-04-24T14:08:18;7.83;;;2.10;;
29634;SDS011;16557;54.762;56.068;2023-04-24T14:10:47;4.10;;;1.80;;
29634;SDS011;16557;54.762;56.068;2023-04-24T14:13:19;6.72;;;2.37;;
29634;SDS011;16557;54.762;56.068;2023-04-24T14:15:48;9.00;;;1.98;;
29634;SDS011;16557;54.762;56.068;2023-04-24T14:18:18;6.90;;;1.60;;
29634;SDS011;16557;54.762;56.068;2023-04-24T14:20:49;6.37;;;2.55;;
29634;SDS011;16557;54.762;56.068;2023-04-24T14:23:18;9.93;;;2.77;;
29634;SDS011;16557;54.762;56.068;2023-04-24T14:25:47;5.35;;;2.00;;
29634;SDS011;16557;54.762;56.068;2023-04-24T14:28:19;6.08;;;2.10;;
29634;SDS011;16557;54.762;56.068;2023-04-24T14:30:48;4.78;;;2.10;;
29634;SDS011;16557;54.762;56.068;2023-04-24T14:33:18;7.95;;;2.22;;
29634;SDS011;16557;54.762;56.068;2023-04-24T14:35:47;4.80;;;2.05;;
29634;SDS011;16557;54.762;56.068;2023-04-24T14:38:17;11.55;;;2.00;;
29634;SDS011;16557;54.762;56.068;2023-04-24T14:40:46;4.67;;;1.70;;
29634;SDS011;16557;54.762;56.068;2023-04-24T14:43:15;3.70;;;1.50;;
29634;SDS011;16557;54.762;56.068;2023-04-24T14:45:44;5.67;;;2.00;;
29634;SDS011;16557;54.762;56.068;2023-04-24T14:48:14;8.50;;;2.83;;
29634;SDS011;16557;54.762;56.068;2023-04-24T14:50:45;6.22;;;2.17;;
29634;SDS011;16557;54.762;56.068;2023-04-24T14:53:14;7.97;;;2.62;;
29634;SDS011;16557;54.762;56.068;2023-04-24T14:55:43;7.60;;;2.17;;
29634;SDS011;16557;54.762;56.068;2023-04-24T14:58:13;7.35;;;1.95;;
29634;SDS011;16557;54.762;56.068;2023-04-24T15:00:42;4.62;;;2.10;;
29634;SDS011;16557;54.762;56.068;2023-04-24T15:03:11;4.92;;;1.95;;
29634;SDS011;16557;54.762;56.068;2023-04-24T15:05:41;7.35;;;2.50;;
29634;SDS011;16557;54.762;56.068;2023-04-24T15:08:10;9.50;;;1.70;;
29634;SDS011;16557;54.762;56.068;2023-04-24T15:10:39;9.30;;;2.30;;
29634;SDS011;16557;54.762;56.068;2023-04-24T15:13:08;7.67;;;3.62;;